sensor_id;sensor_type;location;lat;lon;timestamp;temperature;humidity
40255;DHT22;25973;52.368;4.940;2023-05-09T00:00:12;16.30;99.90
40255;DHT22;25973;52.368;4.940;2023-05-09T00:02:38;16.40;99.90
40255;DHT22;25973;52.368;4.940;2023-05-09T00:05:05;16.40;99.90
40255;DHT22;25973;52.368;4.940;2023-05-09T00:07:32;16.50;99.90
40255;DHT22;25973;52.368;4.940;2023-05-09T00:09:58;16.50;99.90
40255;DHT22;25973;52.368;4.940;2023-05-09T00:12:23;16.50;99.90
40255;DHT22;25973;52.368;4.940;2023-05-09T00:14:49;16.50;99.90
40255;DHT22;25973;52.368;4.940;2023-05-09T00:17:16;16.50;99.90
40255;DHT22;25973;52.368;4.940;2023-05-09T00:19:43;16.50;99.90
40255;DHT22;25973;52.368;4.940;2023-05-09T00:22:09;16.50;99.90
40255;DHT22;25973;52.368;4.940;2023-05-09T00:24:37;16.40;99.90
40255;DHT22;25973;52.368;4.940;2023-05-09T00:27:03;16.40;99.90
40255;DHT22;25973;52.368;4.940;2023-05-09T00:29:28;16.30;99.90
40255;DHT22;25973;52.368;4.940;2023-05-09T00:31:54;16.20;99.90
40255;DHT22;25973;52.368;4.940;2023-05-09T00:34:19;16.20;99.90
40255;DHT22;25973;52.368;4.940;2023-05-09T00:36:45;16.20;99.90
40255;DHT22;25973;52.368;4.940;2023-05-09T00:39:10;16.20;99.90
40255;DHT22;25973;52.368;4.940;2023-05-09T00:41:37;16.20;99.90
40255;DHT22;25973;52.368;4.940;2023-05-09T00:44:03;16.20;99.90
40255;DHT22;25973;52.368;4.940;2023-05-09T00:46:29;16.30;99.90
40255;DHT22;25973;52.368;4.940;2023-05-09T00:48:54;16.30;99.90
40255;DHT22;25973;52.368;4.940;2023-05-09T00:51:21;16.40;99.90
40255;DHT22;25973;52.368;4.940;2023-05-09T00:53:47;16.40;99.90
40255;DHT22;25973;52.368;4.940;2023-05-09T00:56:13;16.50;99.90
40255;DHT22;25973;52.368;4.940;2023-05-09T00:58:40;16.40;99.90
40255;DHT22;25973;52.368;4.940;2023-05-09T01:01:05;16.40;99.90
40255;DHT22;25973;52.368;4.940;2023-05-09T01:03:33;16.40;99.90
40255;DHT22;25973;52.368;4.940;2023-05-09T01:06:24;16.40;99.90
40255;DHT22;25973;52.368;4.940;2023-05-09T01:14:39;16.50;99.90
40255;DHT22;25973;52.368;4.940;2023-05-09T01:17:11;16.50;99.90
40255;DHT22;25973;52.368;4.940;2023-05-09T01:20:01;16.50;99.90
40255;DHT22;25973;52.368;4.940;2023-05-09T01:22:33;16.50;99.90
40255;DHT22;25973;52.368;4.940;2023-05-09T01:25:26;16.50;99.90
40255;DHT22;25973;52.368;4.940;2023-05-09T01:30:25;16.50;99.90
40255;DHT22;25973;52.368;4.940;2023-05-09T01:32:54;16.50;99.90
40255;DHT22;25973;52.368;4.940;2023-05-09T01:35:24;16.50;99.90
40255;DHT22;25973;52.368;4.940;2023-05-09T01:37:50;16.50;99.90
40255;DHT22;25973;52.368;4.940;2023-05-09T01:40:19;16.50;99.90
40255;DHT22;25973;52.368;4.940;2023-05-09T01:42:57;16.50;99.90
40255;DHT22;25973;52.368;4.940;2023-05-09T01:45:24;16.50;99.90
40255;DHT22;25973;52.368;4.940;2023-05-09T01:47:52;16.40;99.90
40255;DHT22;25973;52.368;4.940;2023-05-09T01:50:19;16.40;99.90
40255;DHT22;25973;52.368;4.940;2023-05-09T01:52:47;16.40;99.90
40255;DHT22;25973;52.368;4.940;2023-05-09T01:55:14;16.40;99.90
40255;DHT22;25973;52.368;4.940;2023-05-09T01:57:42;16.40;99.90
40255;DHT22;25973;52.368;4.940;2023-05-09T02:00:08;16.40;99.90
40255;DHT22;25973;52.368;4.940;2023-05-09T02:02:35;16.40;99.90
40255;DHT22;25973;52.368;4.940;2023-05-09T02:05:01;16.30;99.90
40255;DHT22;25973;52.368;4.940;2023-05-09T02:07:28;16.30;99.90
40255;DHT22;25973;52.368;4.940;2023-05-09T02:09:54;16.30;99.90
40255;DHT22;25973;52.368;4.940;2023-05-09T02:12:25;16.30;99.90
40255;DHT22;25973;52.368;4.940;2023-05-09T02:14:51;16.30;99.90
40255;DHT22;25973;52.368;4.940;2023-05-09T02:17:16;16.30;99.90
40255;DHT22;25973;52.368;4.940;2023-05-09T02:19:43;16.30;99.90
40255;DHT22;25973;52.368;4.940;2023-05-09T02:22:09;16.40;99.90
40255;DHT22;25973;52.368;4.940;2023-05-09T02:24:35;16.40;99.90
40255;DHT22;25973;52.368;4.940;2023-05-09T02:27:02;16.40;99.90
40255;DHT22;25973;52.368;4.940;2023-05-09T02:29:34;16.40;99.90
40255;DHT22;25973;52.368;4.940;2023-05-09T02:32:08;16.30;99.90
40255;DHT22;25973;52.368;4.940;2023-05-09T02:34:36;16.30;99.90
40255;DHT22;25973;52.368;4.940;2023-05-09T02:37:03;16.30;99.90
40255;DHT22;25973;52.368;4.940;2023-05-09T02:39:29;16.20;99.90
40255;DHT22;25973;52.368;4.940;2023-05-09T02:41:55;16.30;99.90
40255;DHT22;25973;52.368;4.940;2023-05-09T02:44:21;16.20;99.90
40255;DHT22;25973;52.368;4.940;2023-05-09T02:46:46;16.20;99.90
40255;DHT22;25973;52.368;4.940;2023-05-09T02:49:12;16.20;99.90
40255;DHT22;25973;52.368;4.940;2023-05-09T02:51:37;16.30;99.90
40255;DHT22;25973;52.368;4.940;2023-05-09T02:54:03;16.20;99.90
40255;DHT22;25973;52.368;4.940;2023-05-09T02:56:29;16.30;99.90
40255;DHT22;25973;52.368;4.940;2023-05-09T02:58:54;16.20;99.90
40255;DHT22;25973;52.368;4.940;2023-05-09T03:01:20;16.10;99.90
40255;DHT22;25973;52.368;4.940;2023-05-09T03:03:46;16.10;99.90
40255;DHT22;25973;52.368;4.940;2023-05-09T03:06:11;16.10;99.90
40255;DHT22;25973;52.368;4.940;2023-05-09T03:08:37;16.10;99.90
40255;DHT22;25973;52.368;4.940;2023-05-09T03:11:02;16.10;99.90
40255;DHT22;25973;52.368;4.940;2023-05-09T03:13:28;16.10;99.90
40255;DHT22;25973;52.368;4.940;2023-05-09T03:15:53;16.10;99.90
40255;DHT22;25973;52.368;4.940;2023-05-09T03:18:19;16.10;99.90
40255;DHT22;25973;52.368;4.940;2023-05-09T03:20:44;16.10;99.90
40255;DHT22;25973;52.368;4.940;2023-05-09T03:23:10;16.10;99.90
40255;DHT22;25973;52.368;4.940;2023-05-09T03:25:35;16.10;99.90
40255;DHT22;25973;52.368;4.940;2023-05-09T03:28:01;16.10;99.90
40255;DHT22;25973;52.368;4.940;2023-05-09T03:30:26;16.00;99.90
40255;DHT22;25973;52.368;4.940;2023-05-09T03:32:52;16.00;99.90
40255;DHT22;25973;52.368;4.940;2023-05-09T03:35:18;15.90;99.90
40255;DHT22;25973;52.368;4.940;2023-05-09T03:37:43;15.80;99.90
40255;DHT22;25973;52.368;4.940;2023-05-09T03:40:09;15.80;99.90
40255;DHT22;25973;52.368;4.940;2023-05-09T03:42:35;15.80;99.90
40255;DHT22;25973;52.368;4.940;2023-05-09T03:45:00;15.80;99.90
40255;DHT22;25973;52.368;4.940;2023-05-09T03:47:26;15.80;99.90
40255;DHT22;25973;52.368;4.940;2023-05-09T03:49:51;15.80;99.90
40255;DHT22;25973;52.368;4.940;2023-05-09T03:52:17;15.80;99.90
40255;DHT22;25973;52.368;4.940;2023-05-09T03:54:43;15.80;99.90
40255;DHT22;25973;52.368;4.940;2023-05-09T03:57:09;15.90;99.90
40255;DHT22;25973;52.368;4.940;2023-05-09T03:59:34;15.90;99.90
40255;DHT22;25973;52.368;4.940;2023-05-09T04:02:00;15.90;99.90
40255;DHT22;25973;52.368;4.940;2023-05-09T04:04:26;15.90;99.90
40255;DHT22;25973;52.368;4.940;2023-05-09T04:06:51;15.90;99.90
40255;DHT22;25973;52.368;4.940;2023-05-09T04:09:17;15.90;99.90
40255;DHT22;25973;52.368;4.940;2023-05-09T04:11:43;15.80;99.90
40255;DHT22;25973;52.368;4.940;2023-05-09T04:14:08;15.80;99.90
40255;DHT22;25973;52.368;4.940;2023-05-09T04:16:34;15.80;99.90
40255;DHT22;25973;52.368;4.940;2023-05-09T04:19:00;15.70;99.90
40255;DHT22;25973;52.368;4.940;2023-05-09T04:21:25;15.70;99.90
40255;DHT22;25973;52.368;4.940;2023-05-09T04:23:51;15.70;99.90
40255;DHT22;25973;52.368;4.940;2023-05-09T04:26:17;15.60;99.90
40255;DHT22;25973;52.368;4.940;2023-05-09T04:28:42;15.70;99.90
40255;DHT22;25973;52.368;4.940;2023-05-09T04:31:08;15.70;99.90
40255;DHT22;25973;52.368;4.940;2023-05-09T04:33:33;15.70;99.90
40255;DHT22;25973;52.368;4.940;2023-05-09T04:36:00;15.60;99.90
40255;DHT22;25973;52.368;4.940;2023-05-09T04:38:26;15.60;99.90
40255;DHT22;25973;52.368;4.940;2023-05-09T04:40:51;15.60;99.90
40255;DHT22;25973;52.368;4.940;2023-05-09T04:43:17;15.60;99.90
40255;DHT22;25973;52.368;4.940;2023-05-09T04:45:43;15.50;99.90
40255;DHT22;25973;52.368;4.940;2023-05-09T04:48:09;15.50;99.90
40255;DHT22;25973;52.368;4.940;2023-05-09T04:50:35;15.40;99.90
40255;DHT22;25973;52.368;4.940;2023-05-09T04:53:00;15.40;99.90
40255;DHT22;25973;52.368;4.940;2023-05-09T04:55:26;15.40;99.90
40255;DHT22;25973;52.368;4.940;2023-05-09T04:57:51;15.30;99.90
40255;DHT22;25973;52.368;4.940;2023-05-09T05:00:17;15.30;99.90
40255;DHT22;25973;52.368;4.940;2023-05-09T05:02:43;15.30;99.90
40255;DHT22;25973;52.368;4.940;2023-05-09T05:05:09;15.30;99.90
40255;DHT22;25973;52.368;4.940;2023-05-09T05:07:34;15.40;99.90
40255;DHT22;25973;52.368;4.940;2023-05-09T05:10:00;15.40;99.90
40255;DHT22;25973;52.368;4.940;2023-05-09T05:12:25;15.40;99.90
40255;DHT22;25973;52.368;4.940;2023-05-09T05:14:51;15.50;99.90
40255;DHT22;25973;52.368;4.940;2023-05-09T05:17:17;15.50;99.90
40255;DHT22;25973;52.368;4.940;2023-05-09T05:19:42;15.50;99.90
40255;DHT22;25973;52.368;4.940;2023-05-09T05:22:08;15.50;99.90
40255;DHT22;25973;52.368;4.940;2023-05-09T05:24:33;15.60;99.90
40255;DHT22;25973;52.368;4.940;2023-05-09T05:26:59;15.70;99.90
40255;DHT22;25973;52.368;4.940;2023-05-09T05:29:24;15.70;99.90
40255;DHT22;25973;52.368;4.940;2023-05-09T05:31:50;15.70;99.90
40255;DHT22;25973;52.368;4.940;2023-05-09T05:34:16;15.60;99.90
40255;DHT22;25973;52.368;4.940;2023-05-09T05:36:41;15.70;99.90
40255;DHT22;25973;52.368;4.940;2023-05-09T05:39:07;15.60;99.90
40255;DHT22;25973;52.368;4.940;2023-05-09T05:41:33;15.60;99.90
40255;DHT22;25973;52.368;4.940;2023-05-09T05:43:58;15.70;99.90
40255;DHT22;25973;52.368;4.940;2023-05-09T05:46:24;15.70;99.90
40255;DHT22;25973;52.368;4.940;2023-05-09T05:48:49;15.70;99.90
40255;DHT22;25973;52.368;4.940;2023-05-09T05:51:15;15.70;99.90
40255;DHT22;25973;52.368;4.940;2023-05-09T05:53:40;15.70;99.90
40255;DHT22;25973;52.368;4.940;2023-05-09T05:56:06;15.70;99.90
40255;DHT22;25973;52.368;4.940;2023-05-09T05:58:32;15.70;99.90
40255;DHT22;25973;52.368;4.940;2023-05-09T06:00:57;15.70;99.90
40255;DHT22;25973;52.368;4.940;2023-05-09T06:03:23;15.70;99.90
40255;DHT22;25973;52.368;4.940;2023-05-09T06:05:48;15.60;99.90
40255;DHT22;25973;52.368;4.940;2023-05-09T06:08:15;15.70;99.90
40255;DHT22;25973;52.368;4.940;2023-05-09T06:10:40;15.70;99.90
40255;DHT22;25973;52.368;4.940;2023-05-09T06:13:06;15.70;99.90
40255;DHT22;25973;52.368;4.940;2023-05-09T06:15:32;15.70;99.90
40255;DHT22;25973;52.368;4.940;2023-05-09T06:17:58;15.60;99.90
40255;DHT22;25973;52.368;4.940;2023-05-09T06:20:23;15.60;99.90
40255;DHT22;25973;52.368;4.940;2023-05-09T06:22:49;15.60;99.90
40255;DHT22;25973;52.368;4.940;2023-05-09T06:25:15;15.60;99.90
40255;DHT22;25973;52.368;4.940;2023-05-09T06:27:41;15.60;99.90
40255;DHT22;25973;52.368;4.940;2023-05-09T06:30:07;15.70;99.90
40255;DHT22;25973;52.368;4.940;2023-05-09T06:32:33;15.70;99.90
40255;DHT22;25973;52.368;4.940;2023-05-09T06:34:58;15.70;99.90
40255;DHT22;25973;52.368;4.940;2023-05-09T06:37:24;15.60;99.90
40255;DHT22;25973;52.368;4.940;2023-05-09T06:39:49;15.60;99.90
40255;DHT22;25973;52.368;4.940;2023-05-09T06:42:15;15.60;99.90
40255;DHT22;25973;52.368;4.940;2023-05-09T06:44:41;15.60;99.90
40255;DHT22;25973;52.368;4.940;2023-05-09T06:47:10;15.60;99.90
40255;DHT22;25973;52.368;4.940;2023-05-09T06:49:35;15.60;99.90
40255;DHT22;25973;52.368;4.940;2023-05-09T06:52:01;15.50;99.90
40255;DHT22;25973;52.368;4.940;2023-05-09T06:54:26;15.50;99.90
40255;DHT22;25973;52.368;4.940;2023-05-09T06:56:52;15.50;99.90
40255;DHT22;25973;52.368;4.940;2023-05-09T06:59:18;15.50;99.90
40255;DHT22;25973;52.368;4.940;2023-05-09T07:01:43;15.50;99.90
40255;DHT22;25973;52.368;4.940;2023-05-09T07:04:09;15.60;99.90
40255;DHT22;25973;52.368;4.940;2023-05-09T07:06:35;15.50;99.90
40255;DHT22;25973;52.368;4.940;2023-05-09T07:09:00;15.50;99.90
40255;DHT22;25973;52.368;4.940;2023-05-09T07:11:26;15.50;99.90
40255;DHT22;25973;52.368;4.940;2023-05-09T07:13:51;15.50;99.90
40255;DHT22;25973;52.368;4.940;2023-05-09T07:16:17;15.50;99.90
40255;DHT22;25973;52.368;4.940;2023-05-09T07:18:43;15.50;99.90
40255;DHT22;25973;52.368;4.940;2023-05-09T07:21:08;15.50;99.90
40255;DHT22;25973;52.368;4.940;2023-05-09T07:23:34;15.50;99.90
40255;DHT22;25973;52.368;4.940;2023-05-09T07:25:59;15.50;99.90
40255;DHT22;25973;52.368;4.940;2023-05-09T07:28:25;15.50;99.90
40255;DHT22;25973;52.368;4.940;2023-05-09T07:30:53;15.50;99.90
40255;DHT22;25973;52.368;4.940;2023-05-09T07:33:19;15.40;99.90
40255;DHT22;25973;52.368;4.940;2023-05-09T07:35:44;15.40;99.90
40255;DHT22;25973;52.368;4.940;2023-05-09T07:38:10;15.30;99.90
40255;DHT22;25973;52.368;4.940;2023-05-09T07:40:35;15.30;99.90
40255;DHT22;25973;52.368;4.940;2023-05-09T07:43:03;15.30;99.90
40255;DHT22;25973;52.368;4.940;2023-05-09T07:45:28;15.30;99.90
40255;DHT22;25973;52.368;4.940;2023-05-09T07:47:54;15.20;99.90
40255;DHT22;25973;52.368;4.940;2023-05-09T07:50:19;15.20;99.90
40255;DHT22;25973;52.368;4.940;2023-05-09T07:52:45;15.30;99.90
40255;DHT22;25973;52.368;4.940;2023-05-09T07:55:11;15.30;99.90
40255;DHT22;25973;52.368;4.940;2023-05-09T07:57:37;15.30;99.90
40255;DHT22;25973;52.368;4.940;2023-05-09T08:00:04;15.30;99.90
40255;DHT22;25973;52.368;4.940;2023-05-09T08:02:31;15.30;99.90
40255;DHT22;25973;52.368;4.940;2023-05-09T08:04:56;15.30;99.90
40255;DHT22;25973;52.368;4.940;2023-05-09T08:07:22;15.30;99.90
40255;DHT22;25973;52.368;4.940;2023-05-09T08:09:47;15.30;99.90
40255;DHT22;25973;52.368;4.940;2023-05-09T08:12:13;15.30;99.90
40255;DHT22;25973;52.368;4.940;2023-05-09T08:14:38;15.40;99.90
40255;DHT22;25973;52.368;4.940;2023-05-09T08:17:04;15.40;99.90
40255;DHT22;25973;52.368;4.940;2023-05-09T08:19:29;15.40;99.90
40255;DHT22;25973;52.368;4.940;2023-05-09T08:21:55;15.30;99.90
40255;DHT22;25973;52.368;4.940;2023-05-09T08:24:20;15.40;99.90
40255;DHT22;25973;52.368;4.940;2023-05-09T08:26:46;15.40;99.90
40255;DHT22;25973;52.368;4.940;2023-05-09T08:29:11;15.40;99.90
40255;DHT22;25973;52.368;4.940;2023-05-09T08:31:37;15.40;99.90
40255;DHT22;25973;52.368;4.940;2023-05-09T08:34:02;15.40;99.90
40255;DHT22;25973;52.368;4.940;2023-05-09T08:36:28;15.40;99.90
40255;DHT22;25973;52.368;4.940;2023-05-09T08:38:54;15.40;99.90
40255;DHT22;25973;52.368;4.940;2023-05-09T08:41:24;15.40;99.90
40255;DHT22;25973;52.368;4.940;2023-05-09T08:43:53;15.40;99.90
40255;DHT22;25973;52.368;4.940;2023-05-09T08:46:25;15.40;99.90
40255;DHT22;25973;52.368;4.940;2023-05-09T08:48:52;15.40;99.90
40255;DHT22;25973;52.368;4.940;2023-05-09T08:51:18;15.30;99.90
40255;DHT22;25973;52.368;4.940;2023-05-09T08:53:44;15.30;99.90
40255;DHT22;25973;52.368;4.940;2023-05-09T08:56:10;15.30;99.90
40255;DHT22;25973;52.368;4.940;2023-05-09T08:58:36;15.20;99.90
40255;DHT22;25973;52.368;4.940;2023-05-09T09:01:02;15.30;99.90
40255;DHT22;25973;52.368;4.940;2023-05-09T09:03:32;15.20;99.90
40255;DHT22;25973;52.368;4.940;2023-05-09T09:05:58;15.20;99.90
40255;DHT22;25973;52.368;4.940;2023-05-09T09:08:25;15.20;99.90
40255;DHT22;25973;52.368;4.940;2023-05-09T09:10:51;15.20;99.90
40255;DHT22;25973;52.368;4.940;2023-05-09T09:13:19;15.10;99.90
40255;DHT22;25973;52.368;4.940;2023-05-09T09:15:47;15.10;99.90
40255;DHT22;25973;52.368;4.940;2023-05-09T09:18:21;15.10;99.90
40255;DHT22;25973;52.368;4.940;2023-05-09T09:20:50;15.10;99.90
40255;DHT22;25973;52.368;4.940;2023-05-09T09:23:18;15.10;99.90
40255;DHT22;25973;52.368;4.940;2023-05-09T09:25:46;15.20;99.90
40255;DHT22;25973;52.368;4.940;2023-05-09T09:28:11;15.20;99.90
40255;DHT22;25973;52.368;4.940;2023-05-09T09:30:43;15.10;99.90
40255;DHT22;25973;52.368;4.940;2023-05-09T09:33:09;15.20;99.90
40255;DHT22;25973;52.368;4.940;2023-05-09T09:35:38;15.20;99.90
40255;DHT22;25973;52.368;4.940;2023-05-09T09:38:07;15.20;99.90
40255;DHT22;25973;52.368;4.940;2023-05-09T09:40:33;15.20;99.90
40255;DHT22;25973;52.368;4.940;2023-05-09T09:42:58;15.30;99.90
40255;DHT22;25973;52.368;4.940;2023-05-09T09:45:24;15.30;99.90
40255;DHT22;25973;52.368;4.940;2023-05-09T09:47:50;15.30;99.90
40255;DHT22;25973;52.368;4.940;2023-05-09T09:50:17;15.30;99.90
40255;DHT22;25973;52.368;4.940;2023-05-09T09:52:53;15.30;99.90
40255;DHT22;25973;52.368;4.940;2023-05-09T09:55:22;15.20;99.90
40255;DHT22;25973;52.368;4.940;2023-05-09T09:57:49;15.20;99.90
40255;DHT22;25973;52.368;4.940;2023-05-09T10:00:24;15.30;99.90
40255;DHT22;25973;52.368;4.940;2023-05-09T10:02:55;15.30;99.90
40255;DHT22;25973;52.368;4.940;2023-05-09T10:05:26;15.30;99.90
40255;DHT22;25973;52.368;4.940;2023-05-09T10:07:56;15.30;99.90
40255;DHT22;25973;52.368;4.940;2023-05-09T10:10:26;15.30;99.90
40255;DHT22;25973;52.368;4.940;2023-05-09T10:12:55;15.40;99.90
40255;DHT22;25973;52.368;4.940;2023-05-09T10:15:21;15.40;99.90
40255;DHT22;25973;52.368;4.940;2023-05-09T10:17:55;15.50;99.90
40255;DHT22;25973;52.368;4.940;2023-05-09T10:20:22;15.50;99.90
40255;DHT22;25973;52.368;4.940;2023-05-09T10:22:48;15.50;99.90
40255;DHT22;25973;52.368;4.940;2023-05-09T10:25:21;15.50;99.90
40255;DHT22;25973;52.368;4.940;2023-05-09T10:27:48;15.50;99.90
40255;DHT22;25973;52.368;4.940;2023-05-09T10:30:35;15.40;99.90
40255;DHT22;25973;52.368;4.940;2023-05-09T10:33:09;15.40;99.90
40255;DHT22;25973;52.368;4.940;2023-05-09T10:35:43;15.50;99.90
40255;DHT22;25973;52.368;4.940;2023-05-09T10:38:11;15.40;99.90
40255;DHT22;25973;52.368;4.940;2023-05-09T10:40:37;15.50;99.90
40255;DHT22;25973;52.368;4.940;2023-05-09T10:43:04;15.40;99.90
40255;DHT22;25973;52.368;4.940;2023-05-09T10:45:32;15.40;99.90
40255;DHT22;25973;52.368;4.940;2023-05-09T10:47:58;15.40;99.90
40255;DHT22;25973;52.368;4.940;2023-05-09T10:50:26;15.40;99.90
40255;DHT22;25973;52.368;4.940;2023-05-09T10:55:48;15.40;99.90
40255;DHT22;25973;52.368;4.940;2023-05-09T10:58:29;15.40;99.90
40255;DHT22;25973;52.368;4.940;2023-05-09T11:00:57;15.40;99.90
40255;DHT22;25973;52.368;4.940;2023-05-09T11:03:24;15.40;99.90
40255;DHT22;25973;52.368;4.940;2023-05-09T11:05:58;15.40;99.90
40255;DHT22;25973;52.368;4.940;2023-05-09T11:08:28;15.40;99.90
40255;DHT22;25973;52.368;4.940;2023-05-09T11:11:04;15.50;99.90
40255;DHT22;25973;52.368;4.940;2023-05-09T11:13:31;15.40;99.90
40255;DHT22;25973;52.368;4.940;2023-05-09T11:18:26;15.40;99.90
40255;DHT22;25973;52.368;4.940;2023-05-09T11:20:53;15.40;99.90
40255;DHT22;25973;52.368;4.940;2023-05-09T11:23:29;15.40;99.90
40255;DHT22;25973;52.368;4.940;2023-05-09T11:26:05;15.50;99.90
40255;DHT22;25973;52.368;4.940;2023-05-09T11:28:36;15.50;99.90
40255;DHT22;25973;52.368;4.940;2023-05-09T11:33:38;15.50;99.90
40255;DHT22;25973;52.368;4.940;2023-05-09T11:36:28;15.50;99.90
40255;DHT22;25973;52.368;4.940;2023-05-09T11:39:08;15.50;99.90
40255;DHT22;25973;52.368;4.940;2023-05-09T11:41:43;15.60;99.90
40255;DHT22;25973;52.368;4.940;2023-05-09T11:44:20;15.60;99.90
40255;DHT22;25973;52.368;4.940;2023-05-09T11:46:47;15.60;99.90
40255;DHT22;25973;52.368;4.940;2023-05-09T11:49:14;15.60;99.90
40255;DHT22;25973;52.368;4.940;2023-05-09T11:51:39;15.60;99.90
40255;DHT22;25973;52.368;4.940;2023-05-09T11:54:08;15.60;99.90
40255;DHT22;25973;52.368;4.940;2023-05-09T11:56:38;15.60;99.90
40255;DHT22;25973;52.368;4.940;2023-05-09T11:59:04;15.60;99.90
40255;DHT22;25973;52.368;4.940;2023-05-09T12:01:30;15.50;99.90
40255;DHT22;25973;52.368;4.940;2023-05-09T12:03:57;15.60;99.90
40255;DHT22;25973;52.368;4.940;2023-05-09T12:06:23;15.60;99.90
40255;DHT22;25973;52.368;4.940;2023-05-09T12:08:50;15.60;99.90
40255;DHT22;25973;52.368;4.940;2023-05-09T12:11:16;15.60;99.90
40255;DHT22;25973;52.368;4.940;2023-05-09T12:13:47;15.60;99.90
40255;DHT22;25973;52.368;4.940;2023-05-09T12:16:13;15.60;99.90
40255;DHT22;25973;52.368;4.940;2023-05-09T12:18:47;15.60;99.90
40255;DHT22;25973;52.368;4.940;2023-05-09T12:21:13;15.60;99.90
40255;DHT22;25973;52.368;4.940;2023-05-09T12:23:39;15.60;99.90
40255;DHT22;25973;52.368;4.940;2023-05-09T12:26:05;15.60;99.90
40255;DHT22;25973;52.368;4.940;2023-05-09T12:28:31;15.60;99.90
40255;DHT22;25973;52.368;4.940;2023-05-09T12:30:57;15.70;99.90
40255;DHT22;25973;52.368;4.940;2023-05-09T12:33:23;15.60;99.90
40255;DHT22;25973;52.368;4.940;2023-05-09T12:36:01;15.70;99.90
40255;DHT22;25973;52.368;4.940;2023-05-09T12:38:27;15.70;99.90
40255;DHT22;25973;52.368;4.940;2023-05-09T12:41:03;15.70;99.90
40255;DHT22;25973;52.368;4.940;2023-05-09T12:43:36;15.70;99.90
40255;DHT22;25973;52.368;4.940;2023-05-09T12:46:02;15.70;99.90
40255;DHT22;25973;52.368;4.940;2023-05-09T12:48:29;15.70;99.90
40255;DHT22;25973;52.368;4.940;2023-05-09T12:50:55;15.60;99.90
40255;DHT22;25973;52.368;4.940;2023-05-09T12:53:27;15.60;99.90
40255;DHT22;25973;52.368;4.940;2023-05-09T12:56:01;15.60;99.90
40255;DHT22;25973;52.368;4.940;2023-05-09T12:58:31;15.60;99.90
40255;DHT22;25973;52.368;4.940;2023-05-09T13:01:01;15.60;99.90
40255;DHT22;25973;52.368;4.940;2023-05-09T13:03:28;15.60;99.90
40255;DHT22;25973;52.368;4.940;2023-05-09T13:06:01;15.60;99.90
40255;DHT22;25973;52.368;4.940;2023-05-09T13:08:28;15.60;99.90
40255;DHT22;25973;52.368;4.940;2023-05-09T13:10:53;15.70;99.90
40255;DHT22;25973;52.368;4.940;2023-05-09T13:13:20;15.70;99.90
40255;DHT22;25973;52.368;4.940;2023-05-09T13:15:47;15.70;99.90
40255;DHT22;25973;52.368;4.940;2023-05-09T13:18:12;15.70;99.90
40255;DHT22;25973;52.368;4.940;2023-05-09T13:20:38;15.80;99.90
40255;DHT22;25973;52.368;4.940;2023-05-09T13:23:04;15.80;99.90
40255;DHT22;25973;52.368;4.940;2023-05-09T13:25:29;15.80;99.90
40255;DHT22;25973;52.368;4.940;2023-05-09T13:27:55;15.80;99.90
40255;DHT22;25973;52.368;4.940;2023-05-09T13:30:21;15.90;99.90
40255;DHT22;25973;52.368;4.940;2023-05-09T13:32:46;15.90;99.90
40255;DHT22;25973;52.368;4.940;2023-05-09T13:35:13;15.90;99.90
40255;DHT22;25973;52.368;4.940;2023-05-09T13:37:38;15.90;99.90
40255;DHT22;25973;52.368;4.940;2023-05-09T13:40:04;16.00;99.90
40255;DHT22;25973;52.368;4.940;2023-05-09T13:42:32;16.10;99.90
40255;DHT22;25973;52.368;4.940;2023-05-09T13:44:58;16.00;99.90
40255;DHT22;25973;52.368;4.940;2023-05-09T13:47:24;16.10;99.90
40255;DHT22;25973;52.368;4.940;2023-05-09T13:49:50;16.10;99.90
40255;DHT22;25973;52.368;4.940;2023-05-09T13:52:16;16.00;99.90
40255;DHT22;25973;52.368;4.940;2023-05-09T13:54:42;16.00;99.90
40255;DHT22;25973;52.368;4.940;2023-05-09T13:57:08;16.00;99.90
40255;DHT22;25973;52.368;4.940;2023-05-09T13:59:33;16.00;99.90
40255;DHT22;25973;52.368;4.940;2023-05-09T14:01:59;16.00;99.90
40255;DHT22;25973;52.368;4.940;2023-05-09T14:04:26;16.00;99.90
40255;DHT22;25973;52.368;4.940;2023-05-09T14:06:53;16.00;99.90
40255;DHT22;25973;52.368;4.940;2023-05-09T14:09:19;16.00;99.90
40255;DHT22;25973;52.368;4.940;2023-05-09T14:11:49;16.00;99.90
40255;DHT22;25973;52.368;4.940;2023-05-09T14:14:16;15.90;99.90
40255;DHT22;25973;52.368;4.940;2023-05-09T14:16:42;15.90;99.90
40255;DHT22;25973;52.368;4.940;2023-05-09T14:19:07;15.90;99.90
40255;DHT22;25973;52.368;4.940;2023-05-09T14:21:33;15.90;99.90
40255;DHT22;25973;52.368;4.940;2023-05-09T14:23:59;15.90;99.90
40255;DHT22;25973;52.368;4.940;2023-05-09T14:26:24;15.90;99.90
40255;DHT22;25973;52.368;4.940;2023-05-09T14:28:51;15.90;99.90
40255;DHT22;25973;52.368;4.940;2023-05-09T14:31:17;15.90;99.90
40255;DHT22;25973;52.368;4.940;2023-05-09T14:33:43;15.90;99.90
40255;DHT22;25973;52.368;4.940;2023-05-09T14:36:09;15.90;99.90
40255;DHT22;25973;52.368;4.940;2023-05-09T14:38:35;15.90;99.90
40255;DHT22;25973;52.368;4.940;2023-05-09T14:41:01;15.90;99.90
40255;DHT22;25973;52.368;4.940;2023-05-09T14:43:27;15.90;99.90
40255;DHT22;25973;52.368;4.940;2023-05-09T14:45:53;15.90;99.90
40255;DHT22;25973;52.368;4.940;2023-05-09T14:48:18;16.00;99.90
40255;DHT22;25973;52.368;4.940;2023-05-09T14:50:44;16.00;99.90
40255;DHT22;25973;52.368;4.940;2023-05-09T14:53:11;16.00;99.90
40255;DHT22;25973;52.368;4.940;2023-05-09T14:55:37;16.00;99.90
40255;DHT22;25973;52.368;4.940;2023-05-09T14:58:03;16.00;99.90
40255;DHT22;25973;52.368;4.940;2023-05-09T15:00:28;16.00;99.90
40255;DHT22;25973;52.368;4.940;2023-05-09T15:02:54;16.00;99.90
40255;DHT22;25973;52.368;4.940;2023-05-09T15:05:20;16.00;99.90
40255;DHT22;25973;52.368;4.940;2023-05-09T15:07:45;16.10;99.90
40255;DHT22;25973;52.368;4.940;2023-05-09T15:10:11;16.10;99.90
40255;DHT22;25973;52.368;4.940;2023-05-09T15:12:36;16.10;99.90
40255;DHT22;25973;52.368;4.940;2023-05-09T15:15:19;16.10;99.90
40255;DHT22;25973;52.368;4.940;2023-05-09T15:17:45;16.10;99.90
40255;DHT22;25973;52.368;4.940;2023-05-09T15:20:12;16.10;99.90
40255;DHT22;25973;52.368;4.940;2023-05-09T15:22:39;16.10;99.90
40255;DHT22;25973;52.368;4.940;2023-05-09T15:25:05;16.20;99.90
40255;DHT22;25973;52.368;4.940;2023-05-09T15:27:31;16.20;99.90
40255;DHT22;25973;52.368;4.940;2023-05-09T15:29:57;16.20;99.90
40255;DHT22;25973;52.368;4.940;2023-05-09T15:32:22;16.30;99.90
40255;DHT22;25973;52.368;4.940;2023-05-09T15:34:48;16.20;99.90
40255;DHT22;25973;52.368;4.940;2023-05-09T15:37:13;16.10;99.90
40255;DHT22;25973;52.368;4.940;2023-05-09T15:39:39;16.00;99.90
40255;DHT22;25973;52.368;4.940;2023-05-09T15:42:11;16.00;99.90
40255;DHT22;25973;52.368;4.940;2023-05-09T15:44:40;15.90;99.90